Observation data for Paducah on 04/22/2019      Previous  Date  Next       Current Mesonet Observations  Soil Data  Daily Summary Page  Observations in Plain Language
KPAD 220500Z 20011KT 19/14 A2984 RMK A01 T01930139  RH  074%=      5-min Rain = 0
KPAD 220505Z 19010KT 19/14 A2984 RMK A01 T01910138  RH  074%=      5-min Rain = 0
KPAD 220510Z 19010KT 19/14 A2984 RMK A01 T01880137  RH  075%=      5-min Rain = 0
KPAD 220515Z 19010KT 19/14 A2984 RMK A01 T01860137  RH  076%=      5-min Rain = 0
KPAD 220520Z 19010KT 18/14 A2985 RMK A01 T01820136  RH  078%=      5-min Rain = 0
KPAD 220525Z 19010KT 18/14 A2985 RMK A01 T01800136  RH  079%=      5-min Rain = 0
KPAD 220530Z 19009KT 18/14 A2985 RMK A01 T01780136  RH  079%=      5-min Rain = 0
KPAD 220535Z 19009KT 18/14 A2985 RMK A01 T01760135  RH  080%=      5-min Rain = 0
KPAD 220540Z 20009KT 17/13 A2985 RMK A01 T01730134  RH  081%=      5-min Rain = 0
KPAD 220545Z 20010KT 17/13 A2985 RMK A01 T01720134  RH  082%=      5-min Rain = 0
KPAD 220550Z 20010KT 17/14 A2985 RMK A01 T01740135  RH  082%=      5-min Rain = 0
KPAD 220555Z 20011KT 18/14 A2985 RMK A01 T01770136  RH  080%=      5-min Rain = 0
KPAD 220600Z 20013KT 18/14 A2985 RMK A01 T01810136  RH  078%=      5-min Rain = 0
KPAD 220605Z 20013KT 19/14 A2986 RMK A01 T01850136  RH  076%=      5-min Rain = 0
KPAD 220610Z 20012KT 19/14 A2986 RMK A01 T01860136  RH  075%=      5-min Rain = 0
KPAD 220615Z 20011KT 19/14 A2986 RMK A01 T01860135  RH  075%=      5-min Rain = 0
KPAD 220620Z 20011KT 18/14 A2986 RMK A01 T01840135  RH  076%=      5-min Rain = 0
KPAD 220625Z 20011KT 18/14 A2986 RMK A01 T01830135  RH  076%=      5-min Rain = 0
KPAD 220630Z 20011KT 18/14 A2986 RMK A01 T01830135  RH  077%=      5-min Rain = 0
KPAD 220635Z 20011KT 18/14 A2986 RMK A01 T01830135  RH  077%=      5-min Rain = 0
KPAD 220640Z 20012KT 18/14 A2986 RMK A01 T01830135  RH  076%=      5-min Rain = 0
KPAD 220645Z 20012KT 18/14 A2986 RMK A01 T01840135  RH  076%=      5-min Rain = 0
KPAD 220650Z 20012KT 18/13 A2986 RMK A01 T01830134  RH  076%=      5-min Rain = 0
KPAD 220655Z 21011KT 18/13 A2986 RMK A01 T01820134  RH  076%=      5-min Rain = 0
KPAD 220700Z 21011KT 18/13 A2986 RMK A01 T01810133  RH  077%=      5-min Rain = 0
KPAD 220705Z 21012KT 18/13 A2986 RMK A01 T01820132  RH  076%=      5-min Rain = 0
KPAD 220710Z 20014KT 19/13 A2986 RMK A01 T01860131  RH  073%=      5-min Rain = 0
KPAD 220715Z 20014KT 19/13 A2986 RMK A01 T01910131  RH  071%=      5-min Rain = 0
KPAD 220720Z 21014KT 19/13 A2986 RMK A01 T01930131  RH  070%=      5-min Rain = 0
KPAD 220725Z 21014KT 19/13 A2985 RMK A01 T01940131  RH  070%=      5-min Rain = 0
KPAD 220730Z 20014KT 19/13 A2985 RMK A01 T01940131  RH  070%=      5-min Rain = 0
KPAD 220735Z 20014KT 20/13 A2985 RMK A01 T01950132  RH  070%=      5-min Rain = 0
KPAD 220740Z 20013KT 19/13 A2985 RMK A01 T01920132  RH  071%=      5-min Rain = 0
KPAD 220745Z 20013KT 19/13 A2985 RMK A01 T01890132  RH  072%=      5-min Rain = 0
KPAD 220750Z 20013KT 19/13 A2985 RMK A01 T01880132  RH  073%=      5-min Rain = 0
KPAD 220755Z 20013KT 19/13 A2984 RMK A01 T01900133  RH  072%=      5-min Rain = 0
KPAD 220800Z 21013KT 19/13 A2984 RMK A01 T01930134  RH  071%=      5-min Rain = 0
KPAD 220805Z 21013KT 20/13 A2984 RMK A01 T01950134  RH  071%=      5-min Rain = 0
KPAD 220810Z 21013G18KT 20/13 A2984 RMK A01 T01950134  RH  071%=      5-min Rain = 0
KPAD 220815Z 20013KT 19/14 A2984 RMK A01 T01930135  RH  072%=      5-min Rain = 0
KPAD 220820Z 21012G17KT 19/14 A2984 RMK A01 T01930135  RH  072%=      5-min Rain = 0
KPAD 220825Z 20012KT 19/14 A2984 RMK A01 T01910135  RH  073%=      5-min Rain = 0
KPAD 220830Z 20014KT 19/14 A2984 RMK A01 T01920137  RH  073%=      5-min Rain = 0
KPAD 220835Z 21014KT 19/14 A2984 RMK A01 T01920137  RH  073%=      5-min Rain = 0
KPAD 220840Z 21015KT 19/14 A2984 RMK A01 T01940138  RH  073%=      5-min Rain = 0
KPAD 220845Z 21014G19KT 20/14 A2984 RMK A01 T01950138  RH  073%=      5-min Rain = 0
KPAD 220850Z 20014KT 19/14 A2984 RMK A01 T01930138  RH  073%=      5-min Rain = 0
KPAD 220855Z 20014KT 19/14 A2984 RMK A01 T01910138  RH  074%=      5-min Rain = 0
KPAD 220900Z 19013KT 19/14 A2984 RMK A01 T01880138  RH  076%=      5-min Rain = 0
KPAD 220905Z 19013KT 19/14 A2984 RMK A01 T01860138  RH  077%=      5-min Rain = 0
KPAD 220910Z 19013KT 19/14 A2985 RMK A01 T01850138  RH  077%=      5-min Rain = 0
KPAD 220915Z 19013KT 19/14 A2985 RMK A01 T01850138  RH  077%=      5-min Rain = 0
KPAD 220920Z 20013KT 19/14 A2985 RMK A01 T01850139  RH  078%=      5-min Rain = 0
KPAD 220925Z 20013KT 18/14 A2985 RMK A01 T01840139  RH  078%=      5-min Rain = 0
KPAD 220930Z 20012KT 18/14 A2985 RMK A01 T01840139  RH  078%=      5-min Rain = 0
KPAD 220935Z 20013KT 18/14 A2985 RMK A01 T01830139  RH  079%=      5-min Rain = 0
KPAD 220940Z 21013KT 18/14 A2985 RMK A01 T01840139  RH  079%=      5-min Rain = 0
KPAD 220945Z 21014KT 18/14 A2985 RMK A01 T01830139  RH  079%=      5-min Rain = 0
KPAD 220950Z 20014KT 19/14 A2985 RMK A01 T01850139  RH  078%=      5-min Rain = 0
KPAD 220955Z 20014KT 18/14 A2985 RMK A01 T01840139  RH  078%=      5-min Rain = 0
KPAD 221000Z 20013KT 18/14 A2985 RMK A01 T01840140  RH  079%=      5-min Rain = 0
KPAD 221005Z 20013KT 18/14 A2985 RMK A01 T01820139  RH  079%=      5-min Rain = 0
KPAD 221010Z 20013KT 18/14 A2985 RMK A01 T01810139  RH  080%=      5-min Rain = 0
KPAD 221015Z 20014KT 18/14 A2985 RMK A01 T01820140  RH  080%=      5-min Rain = 0
KPAD 221020Z 20013KT 18/14 A2985 RMK A01 T01820140  RH  080%=      5-min Rain = 0
KPAD 221025Z 20012KT 18/14 A2986 RMK A01 T01800139  RH  080%=      5-min Rain = 0
KPAD 221030Z 20011KT 18/14 A2986 RMK A01 T01790139  RH  081%=      5-min Rain = 0
KPAD 221035Z 20010KT 18/14 A2986 RMK A01 T01780139  RH  081%=      5-min Rain = 0
KPAD 221040Z 20011KT 18/14 A2986 RMK A01 T01760138  RH  082%=      5-min Rain = 0
KPAD 221045Z 20011KT 17/14 A2986 RMK A01 T01740138  RH  083%=      5-min Rain = 0
KPAD 221050Z 20012KT 17/14 A2986 RMK A01 T01720138  RH  084%=      5-min Rain = 0
KPAD 221055Z 20013KT 17/14 A2986 RMK A01 T01730139  RH  084%=      5-min Rain = 0
KPAD 221100Z 20013KT 18/14 A2986 RMK A01 T01750139  RH  083%=      5-min Rain = 0
KPAD 221105Z 20012KT 17/14 A2987 RMK A01 T01740138  RH  083%=      5-min Rain = 0
KPAD 221110Z 19011KT 17/14 A2987 RMK A01 T01720137  RH  084%=      5-min Rain = 0
KPAD 221115Z 22007G13KT 17/14 A2989 RMK A01 T01690136  RH  084%=      5-min Rain = 0
KPAD 221120Z 35008G13KT 17/14 A2991 RMK A01 T01690138  RH  085%=      5-min Rain = 0
KPAD 221125Z 30007G12KT 17/14 A2991 RMK A01 T01730139  RH  084%=      5-min Rain = 0
KPAD 221130Z 31009KT 18/14 A2992 RMK A01 T01800140  RH  081%=      5-min Rain = 0
KPAD 221135Z 33011KT 18/14 A2992 RMK A01 T01810139  RH  080%=      5-min Rain = 0
KPAD 221140Z 30006KT 18/14 A2992 RMK A01 T01830139  RH  079%=      5-min Rain = 0
KPAD 221145Z 32005KT 18/14 A2993 RMK A01 T01800137  RH  079%=      5-min Rain = 0
KPAD 221150Z 33006KT 18/14 A2993 RMK A01 T01770137  RH  081%=      5-min Rain = 0
KPAD 221155Z 29004KT 18/14 A2993 RMK A01 T01760137  RH  081%=      5-min Rain = 0
KPAD 221200Z 32005KT 18/14 A2993 RMK A01 T01750136  RH  082%=      5-min Rain = 0
KPAD 221205Z 30005KT 17/14 A2993 RMK A01 T01720135  RH  082%=      5-min Rain = 0
KPAD 221210Z 27006KT 17/13 A2993 RMK A01 T01690134  RH  083%=      5-min Rain = 0
KPAD 221215Z 27007KT 17/14 A2994 RMK A01 T01670135  RH  085%=      5-min Rain = 0
KPAD 221220Z 29007KT 17/14 A2994 RMK A01 T01700138  RH  085%=      5-min Rain = 0
KPAD 221225Z 29007KT 17/14 A2994 RMK A01 T01720137  RH  084%=      5-min Rain = 0
KPAD 221230Z 29007KT 17/14 A2994 RMK A01 T01710137  RH  084%=      5-min Rain = 0
KPAD 221235Z 31010KT 17/14 A2995 RMK A01 T01710137  RH  084%=      5-min Rain = 0
KPAD 221240Z 33014G19KT 17/11 A2995 RMK A01 T01650105  RH  070%=      5-min Rain = 0
KPAD 221245Z 33011KT 16/09 A2996 RMK A01 T01580088  RH  065%=      5-min Rain = 0
KPAD 221250Z 32008KT 15/09 A2997 RMK A01 T01540086  RH  066%=      5-min Rain = 0
KPAD 221255Z 32010KT 15/09 A2997 RMK A01 T01530085  RH  066%=      5-min Rain = 0
KPAD 221300Z 31009KT 15/09 A2997 RMK A01 T01520086  RH  066%=      5-min Rain = 0
KPAD 221305Z 32008KT 15/09 A2998 RMK A01 T01520086  RH  067%=      5-min Rain = 0
KPAD 221310Z 32008KT 15/09 A2998 RMK A01 T01510088  RH  068%=      5-min Rain = 0
KPAD 221315Z 32009KT 15/09 A2998 RMK A01 T01510089  RH  069%=      5-min Rain = 0
KPAD 221320Z 32011KT 15/09 A2998 RMK A01 T01520090  RH  068%=      5-min Rain = 0
KPAD 221325Z 33010KT 15/09 A2998 RMK A01 T01520091  RH  069%=      5-min Rain = 0
KPAD 221330Z 33011KT 15/09 A2998 RMK A01 T01530090  RH  068%=      5-min Rain = 0
KPAD 221335Z 33011KT 15/09 A2999 RMK A01 T01530091  RH  068%=      5-min Rain = 0
KPAD 221340Z 33011KT 15/09 A2999 RMK A01 T01540091  RH  068%=      5-min Rain = 0
KPAD 221345Z 33011G16KT 16/09 A2999 RMK A01 T01550091  RH  068%=      5-min Rain = 0
KPAD 221350Z 33012KT 16/09 A2999 RMK A01 T01550091  RH  068%=      5-min Rain = 0
KPAD 221355Z 33012KT 16/09 A2999 RMK A01 T01560092  RH  068%=      5-min Rain = 0
KPAD 221400Z 33013G18KT 16/09 A2999 RMK A01 T01560092  RH  068%=      5-min Rain = 0
KPAD 221405Z 33013KT 16/09 A2999 RMK A01 T01570093  RH  068%=      5-min Rain = 0
KPAD 221410Z 34013G19KT 16/09 A2999 RMK A01 T01580093  RH  068%=      5-min Rain = 0
KPAD 221415Z 33014G19KT 16/09 A2999 RMK A01 T01580093  RH  067%=      5-min Rain = 0
KPAD 221420Z 33014KT 16/09 A30 RMK A01 T01580094  RH  067%=      5-min Rain = 0
KPAD 221425Z 34013KT 16/09 A30 RMK A01 T01600094  RH  067%=      5-min Rain = 0
KPAD 221430Z 34014KT 16/10 A30 RMK A01 T01600095  RH  067%=      5-min Rain = 0
KPAD 221435Z 34014G19KT 16/10 A30 RMK A01 T01620096  RH  067%=      5-min Rain = 0
KPAD 221440Z 35014KT 16/10 A30 RMK A01 T01630096  RH  067%=      5-min Rain = 0
KPAD 221445Z 35014KT 17/10 A30 RMK A01 T01650097  RH  067%=      5-min Rain = 0
KPAD 221450Z 35014KT 16/10 A3001 RMK A01 T01640098  RH  067%=      5-min Rain = 0
KPAD 221455Z 35013KT 17/10 A3001 RMK A01 T01650100  RH  067%=      5-min Rain = 0
KPAD 221500Z 35013KT 17/10 A3001 RMK A01 T01660100  RH  067%=      5-min Rain = 0
KPAD 221505Z 00012KT 17/10 A3001 RMK A01 T01670100  RH  067%=      5-min Rain = 0
KPAD 221510Z 35012KT 17/10 A3001 RMK A01 T01700103  RH  067%=      5-min Rain = 0
KPAD 221515Z 36011G16KT 17/10 A3001 RMK A01 T01710103  RH  066%=      5-min Rain = 0
KPAD 221520Z 35013KT 17/10 A3001 RMK A01 T01700102  RH  066%=      5-min Rain = 0
KPAD 221525Z 35011KT 17/10 A3001 RMK A01 T01710104  RH  067%=      5-min Rain = 0
KPAD 221530Z 36013KT 17/10 A3001 RMK A01 T01720104  RH  066%=      5-min Rain = 0
KPAD 221535Z 36014KT 17/10 A3002 RMK A01 T01700102  RH  067%=      5-min Rain = 0
KPAD 221540Z 35013KT 17/10 A3002 RMK A01 T01690103  RH  067%=      5-min Rain = 0
KPAD 221545Z 35013KT 17/11 A3001 RMK A01 T01710106  RH  068%=      5-min Rain = 0
KPAD 221550Z 36013KT 18/11 A3001 RMK A01 T01760107  RH  066%=      5-min Rain = 0
KPAD 221555Z 00013KT 18/11 A3002 RMK A01 T01780107  RH  066%=      5-min Rain = 0
KPAD 221600Z 36012KT 18/11 A3002 RMK A01 T01780108  RH  066%=      5-min Rain = 0
KPAD 221605Z 36013KT 18/11 A3002 RMK A01 T01790109  RH  066%=      5-min Rain = 0
KPAD 221610Z 35012G17KT 18/11 A3002 RMK A01 T01800110  RH  066%=      5-min Rain = 0
KPAD 221615Z 35012KT 18/11 A3002 RMK A01 T01810111  RH  066%=      5-min Rain = 0
KPAD 221620Z 35011KT 18/11 A3002 RMK A01 T01810112  RH  066%=      5-min Rain = 0
KPAD 221625Z 35012KT 18/11 A3002 RMK A01 T01830112  RH  065%=      5-min Rain = 0
KPAD 221630Z 34012KT 18/11 A3002 RMK A01 T01830113  RH  066%=      5-min Rain = 0
KPAD 221635Z 35011G16KT 19/11 A3002 RMK A01 T01850114  RH  066%=      5-min Rain = 0
KPAD 221640Z 35012KT 19/12 A3002 RMK A01 T01860115  RH  065%=      5-min Rain = 0
KPAD 221645Z 35012KT 19/11 A3002 RMK A01 T01860114  RH  065%=      5-min Rain = 0
KPAD 221650Z 36013KT 19/12 A3001 RMK A01 T01870115  RH  065%=      5-min Rain = 0
KPAD 221655Z 36012KT 19/12 A3001 RMK A01 T01900117  RH  065%=      5-min Rain = 0
KPAD 221700Z 35012KT 19/12 A3001 RMK A01 T01900116  RH  065%=      5-min Rain = 0
KPAD 221705Z 01012KT 19/12 A3001 RMK A01 T01930118  RH  064%=      5-min Rain = 0
KPAD 221710Z 00011KT 20/12 A3001 RMK A01 T01970120  RH  063%=      5-min Rain = 0
KPAD 221715Z 36012KT 20/12 A3001 RMK A01 T02020122  RH  062%=      5-min Rain = 0
KPAD 221720Z 35013KT 20/12 A3001 RMK A01 T02020121  RH  062%=      5-min Rain = 0
KPAD 221725Z 00011KT 20/12 A3001 RMK A01 T02010120  RH  062%=      5-min Rain = 0
KPAD 221730Z 01012G17KT 20/12 A3001 RMK A01 T02000120  RH  062%=      5-min Rain = 0
KPAD 221735Z 36012KT 20/12 A3001 RMK A01 T02010120  RH  062%=      5-min Rain = 0
KPAD 221740Z 02012KT 20/12 A3001 RMK A01 T02030121  RH  062%=      5-min Rain = 0
KPAD 221745Z 01009KT 20/12 A3002 RMK A01 T02030122  RH  062%=      5-min Rain = 0
KPAD 221750Z 01010KT 20/12 A3002 RMK A01 T02040121  RH  061%=      5-min Rain = 0
KPAD 221755Z 02009KT 20/12 A3002 RMK A01 T02030121  RH  062%=      5-min Rain = 0
KPAD 221800Z 02009G14KT 20/12 A3002 RMK A01 T02030121  RH  062%=      5-min Rain = 0
KPAD 221805Z 03009KT 20/12 A3002 RMK A01 T02040122  RH  062%=      5-min Rain = 0
KPAD 221810Z 00008KT 21/12 A3002 RMK A01 T02070124  RH  061%=      5-min Rain = 0
KPAD 221815Z 36009KT 21/13 A3002 RMK A01 T02110126  RH  061%=      5-min Rain = 0
KPAD 221820Z 36010KT 21/13 A3002 RMK A01 T02110125  RH  060%=      5-min Rain = 0
KPAD 221825Z 35009KT 21/13 A3002 RMK A01 T02080125  RH  061%=      5-min Rain = 0
KPAD 221830Z 01009G14KT 21/12 A3002 RMK A01 T02060123  RH  061%=      5-min Rain = 0
KPAD 221835Z 02007KT 21/13 A3002 RMK A01 T02090125  RH  061%=      5-min Rain = 0
KPAD 221840Z 00008G13KT 21/13 A3002 RMK A01 T02100126  RH  061%=      5-min Rain = 0
KPAD 221845Z 00007KT 21/13 A3002 RMK A01 T02090126  RH  061%=      5-min Rain = 0
KPAD 221850Z 02008KT 21/13 A3002 RMK A01 T02100126  RH  061%=      5-min Rain = 0
KPAD 221855Z 36008KT 21/13 A3002 RMK A01 T02120128  RH  061%=      5-min Rain = 0
KPAD 221900Z 36007KT 21/13 A3002 RMK A01 T02130130  RH  061%=      5-min Rain = 0
KPAD 221905Z 36009KT 22/13 A3002 RMK A01 T02180131  RH  060%=      5-min Rain = 0
KPAD 221910Z 35007KT 22/13 A3001 RMK A01 T02170129  RH  060%=      5-min Rain = 0
KPAD 221915Z 02011KT 21/13 A3001 RMK A01 T02140129  RH  061%=      5-min Rain = 0
KPAD 221920Z 01010KT 22/13 A3001 RMK A01 T02160129  RH  060%=      5-min Rain = 0
KPAD 221925Z 01010KT 22/13 A3001 RMK A01 T02170130  RH  060%=      5-min Rain = 0
KPAD 221930Z 02010KT 22/13 A3001 RMK A01 T02170130  RH  060%=      5-min Rain = 0
KPAD 221935Z 01010G15KT 22/13 A3001 RMK A01 T02230134  RH  060%=      5-min Rain = 0
KPAD 221940Z 01010G15KT 23/13 A3001 RMK A01 T02250133  RH  058%=      5-min Rain = 0
KPAD 221945Z 00012G17KT 22/13 A3001 RMK A01 T02200132  RH  060%=      5-min Rain = 0
KPAD 221950Z 00009G15KT 22/13 A3001 RMK A01 T02200133  RH  060%=      5-min Rain = 0
KPAD 221955Z 00011KT 22/13 A3001 RMK A01 T02150130  RH  061%=      5-min Rain = 0
KPAD 222000Z 00011KT 22/13 A3001 RMK A01 T02150132  RH  062%=      5-min Rain = 0
KPAD 222005Z 00011KT 21/13 A3001 RMK A01 T02140132  RH  062%=      5-min Rain = 0
KPAD 222010Z 00010KT 21/13 A3002 RMK A01 T02130132  RH  062%=      5-min Rain = 0
KPAD 222015Z 02011KT 22/13 A3001 RMK A01 T02150133  RH  062%=      5-min Rain = 0
KPAD 222020Z 01010KT 21/13 A3001 RMK A01 T02110131  RH  062%=      5-min Rain = 0
KPAD 222025Z 00010KT 21/13 A3001 RMK A01 T02100133  RH  064%=      5-min Rain = 0
KPAD 222030Z 01010G15KT 21/13 A3001 RMK A01 T02110133  RH  064%=      5-min Rain = 0
KPAD 222035Z 02011KT 21/13 A3001 RMK A01 T02130134  RH  063%=      5-min Rain = 0
KPAD 222040Z 03010G15KT 21/13 A3001 RMK A01 T02140133  RH  063%=      5-min Rain = 0
KPAD 222045Z 02009G14KT 21/13 A30 RMK A01 T02130133  RH  063%=      5-min Rain = 0
KPAD 222050Z 03011G16KT 21/13 A3001 RMK A01 T02140133  RH  063%=      5-min Rain = 0
KPAD 222055Z 00010KT 22/14 A3001 RMK A01 T02170136  RH  063%=      5-min Rain = 0
KPAD 222100Z 00010KT 22/14 A3002 RMK A01 T02160136  RH  063%=      5-min Rain = 0
KPAD 222105Z 00010KT 22/14 A3001 RMK A01 T02150137  RH  064%=      5-min Rain = 0
KPAD 222110Z 01011KT 22/14 A3001 RMK A01 T02150136  RH  064%=      5-min Rain = 0
KPAD 222115Z 01007G13KT 22/14 A3001 RMK A01 T02150137  RH  064%=      5-min Rain = 0
KPAD 222120Z 02010KT 21/14 A3001 RMK A01 T02130136  RH  064%=      5-min Rain = 0
KPAD 222125Z 02008KT 21/14 A3001 RMK A01 T02130138  RH  065%=      5-min Rain = 0
KPAD 222130Z 01009G14KT 21/14 A3001 RMK A01 T02130138  RH  065%=      5-min Rain = 0
KPAD 222135Z 02008KT 21/14 A3001 RMK A01 T02110138  RH  066%=      5-min Rain = 0
KPAD 222140Z 01011KT 21/14 A3001 RMK A01 T02110137  RH  066%=      5-min Rain = 0
KPAD 222145Z 01011KT 21/14 A3001 RMK A01 T02110138  RH  066%=      5-min Rain = 0
KPAD 222150Z 01010KT 21/14 A30 RMK A01 T02120138  RH  066%=      5-min Rain = 0
KPAD 222155Z 01011KT 21/14 A30 RMK A01 T02100138  RH  066%=      5-min Rain = 0
KPAD 222200Z 03010KT 21/14 A30 RMK A01 T02100138  RH  066%=      5-min Rain = 0
KPAD 222205Z 02010G16KT 21/14 A3001 RMK A01 T02100138  RH  066%=      5-min Rain = 0
KPAD 222210Z 36007KT 21/14 A3001 RMK A01 T02080139  RH  068%=      5-min Rain = 0
KPAD 222215Z 01009KT 21/14 A3001 RMK A01 T02080140  RH  068%=      5-min Rain = 0
KPAD 222220Z 01009KT 21/14 A3001 RMK A01 T02070140  RH  068%=      5-min Rain = 0
KPAD 222225Z 01010KT 21/14 A30 RMK A01 T02070140  RH  068%=      5-min Rain = 0
KPAD 222230Z 01009KT 21/14 A3001 RMK A01 T02060140  RH  069%=      5-min Rain = 0
KPAD 222235Z 01009KT 20/14 A3001 RMK A01 T02040140  RH  069%=      5-min Rain = 0
KPAD 222240Z 35010KT 20/14 A3001 RMK A01 T02020140  RH  070%=      5-min Rain = 0
KPAD 222245Z 35009KT 20/14 A3001 RMK A01 T02010140  RH  071%=      5-min Rain = 0
KPAD 222250Z 34009KT 20/14 A3001 RMK A01 T02010140  RH  071%=      5-min Rain = 0
KPAD 222255Z 34009KT 20/14 A3002 RMK A01 T02000140  RH  072%=      5-min Rain = 0
KPAD 222300Z 35007KT 20/14 A3003 RMK A01 T02000142  RH  072%=      5-min Rain = 0
KPAD 222305Z 35008KT 20/14 A3003 RMK A01 T01990141  RH  072%=      5-min Rain = 0
KPAD 222310Z 35008KT 20/14 A3002 RMK A01 T01980141  RH  073%=      5-min Rain = 0
KPAD 222315Z 00008KT 20/14 A3002 RMK A01 T01980141  RH  073%=      5-min Rain = 0
KPAD 222320Z 36008KT 20/14 A3002 RMK A01 T01980142  RH  073%=      5-min Rain = 0
KPAD 222325Z 00009KT 20/14 A3002 RMK A01 T01980142  RH  073%=      5-min Rain = 0
KPAD 222330Z 01008KT 20/14 A3002 RMK A01 T01980143  RH  074%=      5-min Rain = 0
KPAD 222335Z 01008KT 20/14 A3001 RMK A01 T01980144  RH  074%=      5-min Rain = 0
KPAD 222340Z 01007KT 20/14 A3002 RMK A01 T01980144  RH  074%=      5-min Rain = 0
KPAD 222345Z 01007KT 20/14 A3002 RMK A01 T01980144  RH  074%=      5-min Rain = 0
KPAD 222350Z 01009KT 20/14 A3002 RMK A01 T01970142  RH  074%=      5-min Rain = 0
KPAD 222355Z 01009KT 20/14 A3001 RMK A01 T01950140  RH  074%=      5-min Rain = 0
KPAD 230000Z 02010KT 19/14 A3001 RMK A01 T01930139  RH  074%=      5-min Rain = 0
KPAD 230005Z 01010KT 19/14 A3001 RMK A01 T01930139  RH  074%=      5-min Rain = 0
KPAD 230010Z 01010KT 19/14 A3001 RMK A01 T01920140  RH  075%=      5-min Rain = 0
KPAD 230015Z 01009KT 19/14 A30 RMK A01 T01910140  RH  076%=      5-min Rain = 0
KPAD 230020Z 01010KT 19/14 A30 RMK A01 T01900140  RH  076%=      5-min Rain = 0
KPAD 230025Z 01010KT 19/14 A2999 RMK A01 T01900140  RH  076%=      5-min Rain = 0
KPAD 230030Z 02011G16KT 19/14 A2999 RMK A01 T01890140  RH  076%=      5-min Rain = 0
KPAD 230035Z 02014KT 19/14 A2997 RMK A01 T01880140  RH  077%=      5-min Rain = 0
KPAD 230040Z 02012KT 19/14 A2997 RMK A01 T01860141  RH  079%=      5-min Rain = 0
KPAD 230045Z 01013KT 18/14 A2997 RMK A01 T01840141  RH  079%=      5-min Rain = 0
KPAD 230050Z 01011G18KT 18/14 A2998 RMK A01 T01840141  RH  080%=      5-min Rain = 0
KPAD 230055Z 00007KT 18/14 A30 RMK A01 T01840141  RH  079%=      5-min Rain = 0
KPAD 230100Z 35008KT 18/14 A30 RMK A01 T01840142  RH  080%=      5-min Rain = 0
KPAD 230105Z 36007KT 18/14 A30 RMK A01 T01830141  RH  080%=      5-min Rain = 0
KPAD 230110Z 36008KT 18/14 A30 RMK A01 T01830141  RH  080%=      5-min Rain = 0
KPAD 230115Z 01008KT 18/14 A30 RMK A01 T01830141  RH  080%=      5-min Rain = 0
KPAD 230120Z 00007KT 18/14 A30 RMK A01 T01830141  RH  080%=      5-min Rain = 0
KPAD 230125Z 01007KT 18/14 A30 RMK A01 T01830141  RH  080%=      5-min Rain = 0
KPAD 230130Z 02008KT 18/14 A30 RMK A01 T01830141  RH  080%=      5-min Rain = 0
KPAD 230135Z 02007KT 18/14 A30 RMK A01 T01820143  RH  082%=      5-min Rain = 0
KPAD 230140Z 01005KT 18/14 A30 RMK A01 T01780144  RH  084%=      5-min Rain = 0.01
KPAD 230145Z 30002KT 18/15 A3001 RMK A01 T01760145  RH  086%=      5-min Rain = 0
KPAD 230150Z 33004KT 18/15 A3001 RMK A01 T01760147  RH  087%=      5-min Rain = 0
KPAD 230155Z 02006KT 17/15 A3001 RMK A01 T01740147  RH  088%=      5-min Rain = 0
KPAD 230200Z 03009KT 17/15 A3001 RMK A01 T01720147  RH  089%=      5-min Rain = 0.01
KPAD 230205Z 04009KT 17/15 A30 RMK A01 T01710148  RH  090%=      5-min Rain = 0.01
KPAD 230210Z 03010KT 17/15 A30 RMK A01 T01700148  RH  091%=      5-min Rain = 0
KPAD 230215Z 03008KT 17/15 A3001 RMK A01 T01700148  RH  091%=      5-min Rain = 0
KPAD 230220Z 02007KT 17/15 A3001 RMK A01 T01690148  RH  091%=      5-min Rain = 0
KPAD 230225Z 03006KT 17/15 A3002 RMK A01 T01690148  RH  091%=      5-min Rain = 0
KPAD 230230Z 03008KT 17/15 A3001 RMK A01 T01690148  RH  092%=      5-min Rain = 0
KPAD 230235Z 02010KT 17/15 A3001 RMK A01 T01680148  RH  092%=      5-min Rain = 0
KPAD 230240Z 01007KT 17/15 A3002 RMK A01 T01680149  RH  092%=      5-min Rain = 0
KPAD 230245Z 00008KT 17/15 A3001 RMK A01 T01670149  RH  093%=      5-min Rain = 0.02
KPAD 230250Z 00007KT 17/15 A3002 RMK A01 T01660149  RH  093%=      5-min Rain = 0.01
KPAD 230255Z 00008KT 17/15 A3002 RMK A01 T01660149  RH  094%=      5-min Rain = 0
KPAD 230300Z 01009KT 17/15 A3001 RMK A01 T01650149  RH  094%=      5-min Rain = 0
KPAD 230305Z 01009KT 17/15 A3001 RMK A01 T01650149  RH  094%=      5-min Rain = 0
KPAD 230310Z 00008KT 16/15 A3001 RMK A01 T01640149  RH  095%=      5-min Rain = 0
KPAD 230315Z 00007KT 16/15 A3002 RMK A01 T01640149  RH  095%=      5-min Rain = 0
KPAD 230320Z 00009KT 16/15 A3001 RMK A01 T01640149  RH  095%=      5-min Rain = 0
KPAD 230325Z 01010KT 16/15 A3001 RMK A01 T01630149  RH  095%=      5-min Rain = 0
KPAD 230330Z 02007KT 16/15 A3001 RMK A01 T01630149  RH  095%=      5-min Rain = 0
KPAD 230335Z 01007KT 16/15 A3002 RMK A01 T01630149  RH  096%=      5-min Rain = 0
KPAD 230340Z 01009KT 16/15 A3002 RMK A01 T01630149  RH  096%=      5-min Rain = 0
KPAD 230345Z 02011KT 16/15 A3001 RMK A01 T01620149  RH  096%=      5-min Rain = 0
KPAD 230350Z 03013KT 16/15 A3001 RMK A01 T01620149  RH  096%=      5-min Rain = 0
KPAD 230355Z 03011KT 16/15 A30 RMK A01 T01620149  RH  096%=      5-min Rain = 0
KPAD 230400Z 03009KT 16/15 A30 RMK A01 T01620149  RH  096%=      5-min Rain = 0
KPAD 230405Z 02008KT 16/15 A3001 RMK A01 T01610148  RH  096%=      5-min Rain = 0
KPAD 230410Z 02007KT 16/15 A3001 RMK A01 T01610148  RH  096%=      5-min Rain = 0
KPAD 230415Z 03010KT 16/15 A30 RMK A01 T01610148  RH  096%=      5-min Rain = 0
KPAD 230420Z 03014KT 16/15 A2999 RMK A01 T01600147  RH  096%=      5-min Rain = 0.01
KPAD 230425Z 03013G19KT 16/15 A2999 RMK A01 T01600147  RH  096%=      5-min Rain = 0
KPAD 230430Z 03014KT 16/15 A2999 RMK A01 T01590147  RH  096%=      5-min Rain = 0
KPAD 230435Z 03012KT 16/15 A2999 RMK A01 T01590147  RH  097%=      5-min Rain = 0
KPAD 230440Z 03011KT 16/15 A2999 RMK A01 T01580146  RH  097%=      5-min Rain = 0
KPAD 230445Z 04012KT 16/15 A2998 RMK A01 T01580146  RH  097%=      5-min Rain = 0
KPAD 230450Z 03011KT 16/15 A2998 RMK A01 T01580146  RH  097%=      5-min Rain = 0
KPAD 230455Z 03008G14KT 16/15 A2998 RMK A01 T01570146  RH  097%=      5-min Rain = 0

Page generated in 0.009 seconds.